Time;durP1;ratioP1;P1;durP2;ratioP2;P2;SDS_P1;SDS_P2;PMS_P1;PMS_P2;Temp;Humidity;BMP_temperature;BMP_pressure;BME280_temperature;BME280_humidity;BME280_pressure;Samples;Min_cycle;Max_cycle;Signal;HPM_P1;HPM_P2
2021/12/03 00:00:34;;;;;;;9.07;5.07;;;;;;;2.78;80.45;99934.59;5050026;28;20411;-77
2021/12/03 00:03:00;;;;;;;7.43;5.10;;;;;;;2.85;80.36;99940.78;5040088;28;20437;-77
2021/12/03 00:05:26;;;;;;;8.68;4.95;;;;;;;2.79;80.16;99948.81;5031179;28;20480;-77
2021/12/03 00:07:51;;;;;;;9.23;5.33;;;;;;;2.83;80.28;99955.41;5046047;28;20803;-77
2021/12/03 00:10:22;;;;;;;10.30;5.83;;;;;;;2.68;81.00;99962.78;5049051;28;20426;-77
2021/12/03 00:12:47;;;;;;;5.93;5.05;;;;;;;2.65;80.90;99972.06;5036338;28;20469;-77
2021/12/03 00:15:14;;;;;;;8.93;5.07;;;;;;;2.56;81.40;99968.78;5030010;28;20414;-77
2021/12/03 00:17:39;;;;;;;7.15;5.90;;;;;;;2.63;81.02;99979.47;5036269;28;20387;-77
2021/12/03 00:20:09;;;;;;;7.72;5.65;;;;;;;2.60;80.85;99978.00;5033379;28;20387;-77
2021/12/03 00:22:34;;;;;;;6.95;5.45;;;;;;;2.53;81.28;99981.72;5044690;28;20459;-78
2021/12/03 00:24:59;;;;;;;9.80;5.50;;;;;;;2.53;81.41;99979.06;5040593;28;20423;-77
2021/12/03 00:27:24;;;;;;;8.35;5.30;;;;;;;2.51;81.12;99979.25;5031302;28;20403;-77
2021/12/03 00:29:50;;;;;;;6.27;5.67;;;;;;;2.53;81.24;99984.41;5035303;28;20409;-77
2021/12/03 00:32:15;;;;;;;9.53;6.10;;;;;;;2.61;81.40;99992.22;5030909;28;20423;-77
2021/12/03 00:34:41;;;;;;;6.33;5.37;;;;;;;2.67;80.78;100002.09;5048364;28;20413;-77
2021/12/03 00:37:06;;;;;;;7.00;5.57;;;;;;;2.69;80.66;99996.56;5041798;28;20391;-77
2021/12/03 00:39:31;;;;;;;8.00;6.03;;;;;;;2.77;80.42;100007.84;5034258;28;20438;-77
2021/12/03 00:42:00;;;;;;;8.27;5.57;;;;;;;2.85;79.79;100017.53;5038946;28;20776;-76
2021/12/03 00:44:26;;;;;;;8.68;6.03;;;;;;;2.92;79.51;100015.69;5040682;28;20424;-76
2021/12/03 00:46:52;;;;;;;8.35;5.75;;;;;;;2.91;79.64;100016.72;5041419;28;20402;-77
2021/12/03 00:49:18;;;;;;;9.38;6.55;;;;;;;2.94;79.34;100027.00;5049838;28;20441;-78
2021/12/03 00:51:43;;;;;;;8.87;6.53;;;;;;;2.95;79.12;100026.00;5038334;28;20474;-77
2021/12/03 00:54:09;;;;;;;8.07;6.40;;;;;;;2.96;78.88;100019.63;5054104;28;20412;-77
2021/12/03 00:56:34;;;;;;;10.60;6.40;;;;;;;2.95;78.68;100028.66;5043190;28;20415;-77
2021/12/03 00:58:59;;;;;;;11.15;6.68;;;;;;;2.96;79.08;100041.84;5045248;28;20523;-78
2021/12/03 01:01:27;;;;;;;10.77;7.20;;;;;;;2.92;79.44;100043.28;5050521;28;20421;-77
2021/12/03 01:03:52;;;;;;;10.77;6.50;;;;;;;2.96;78.99;100044.53;5039733;28;20413;-77
2021/12/03 01:06:18;;;;;;;9.33;7.27;;;;;;;2.97;78.39;100034.63;5043555;28;20399;-77
2021/12/03 01:08:43;;;;;;;11.17;6.90;;;;;;;2.93;78.71;100038.78;5049505;28;20394;-77
2021/12/03 01:11:09;;;;;;;9.17;7.27;;;;;;;2.91;78.37;100047.00;5050570;28;20549;-77
2021/12/03 01:13:36;;;;;;;11.73;7.40;;;;;;;2.85;78.38;100039.78;5034041;28;20395;-77
2021/12/03 01:16:03;;;;;;;11.50;7.75;;;;;;;2.77;79.50;100047.16;5043530;28;20480;-77
2021/12/03 01:18:29;;;;;;;9.50;7.18;;;;;;;2.84;79.57;100051.50;5043871;28;20405;-77
2021/12/03 01:20:57;;;;;;;9.20;7.45;;;;;;;2.90;79.24;100050.69;5048977;28;20399;-76
2021/12/03 01:23:22;;;;;;;10.27;7.60;;;;;;;2.89;79.07;100053.59;5036910;28;20393;-76
2021/12/03 01:25:48;;;;;;;10.83;8.10;;;;;;;2.85;79.10;100052.34;5043736;28;20440;-77
2021/12/03 01:28:18;;;;;;;11.20;8.10;;;;;;;2.83;78.98;100052.53;5049074;28;20395;-76
2021/12/03 01:30:43;;;;;;;12.30;8.17;;;;;;;2.82;79.43;100055.44;5035553;28;20399;-76
2021/12/03 01:33:09;;;;;;;10.70;8.00;;;;;;;2.77;79.19;100049.84;5038312;28;20477;-77
2021/12/03 01:35:38;;;;;;;11.93;8.13;;;;;;;2.72;79.11;100058.50;5044860;28;20502;-76
2021/12/03 01:38:06;;;;;;;12.00;8.20;;;;;;;2.68;79.76;100049.22;5032862;28;20409;-78
2021/12/03 01:40:34;;;;;;;10.70;8.15;;;;;;;2.65;80.07;100052.31;5033302;28;20418;-78
2021/12/03 01:43:00;;;;;;;16.33;8.93;;;;;;;2.60;79.61;100060.13;5032051;28;20494;-78
2021/12/03 01:45:29;;;;;;;13.95;9.23;;;;;;;2.52;80.46;100063.00;5042100;28;20416;-79
2021/12/03 01:47:58;;;;;;;11.77;9.20;;;;;;;2.49;80.66;100066.91;5049620;28;20405;-78
2021/12/03 01:50:31;;;;;;;11.68;8.50;;;;;;;2.45;79.98;100067.50;5050038;28;20944;-77
2021/12/03 01:52:56;;;;;;;12.77;8.98;;;;;;;2.38;80.61;100070.16;5033257;28;20514;-76
2021/12/03 01:55:22;;;;;;;13.48;8.25;;;;;;;2.35;80.35;100070.56;5042702;28;20443;-76
2021/12/03 01:57:47;;;;;;;12.40;8.68;;;;;;;2.30;80.42;100070.34;5039857;28;20398;-76
2021/12/03 02:00:30;;;;;;;10.60;8.63;;;;;;;2.27;80.64;100068.06;5048129;28;20403;-77
2021/12/03 02:02:56;;;;;;;12.00;8.67;;;;;;;2.25;80.43;100067.44;5045529;28;20446;-77
2021/12/03 02:05:22;;;;;;;14.97;9.80;;;;;;;2.24;80.39;100064.97;5048445;28;20484;-77
2021/12/03 02:07:48;;;;;;;13.70;9.05;;;;;;;2.22;80.41;100067.84;5046442;28;20397;-77
2021/12/03 02:10:17;;;;;;;15.57;9.73;;;;;;;2.14;80.54;100064.53;5034329;28;20402;-77
2021/12/03 02:12:42;;;;;;;11.70;8.97;;;;;;;2.09;81.11;100070.47;5039538;28;20456;-77
2021/12/03 02:15:09;;;;;;;15.57;10.10;;;;;;;2.07;80.74;100073.31;5043333;28;20803;-77
2021/12/03 02:17:35;;;;;;;13.90;9.75;;;;;;;2.04;80.76;100071.03;5037692;28;20402;-77
2021/12/03 02:20:00;;;;;;;12.20;8.80;;;;;;;2.03;80.27;100081.94;5045002;28;21052;-77
2021/12/03 02:22:26;;;;;;;17.13;10.10;;;;;;;2.03;80.17;100079.28;5033980;28;20450;-76
2021/12/03 02:24:51;;;;;;;12.77;9.35;;;;;;;2.01;80.16;100082.13;5042233;28;20417;-77
2021/12/03 02:27:17;;;;;;;12.80;10.03;;;;;;;1.95;80.68;100082.09;5039230;28;20411;-76
2021/12/03 02:29:42;;;;;;;13.33;9.70;;;;;;;1.88;80.59;100092.75;5049264;28;20488;-76
2021/12/03 02:32:08;;;;;;;12.37;10.13;;;;;;;1.91;80.67;100087.03;5032626;28;20545;-76
2021/12/03 02:34:36;;;;;;;13.68;9.38;;;;;;;1.90;80.52;100090.75;5032293;28;20419;-77
2021/12/03 02:37:01;;;;;;;12.05;9.38;;;;;;;1.90;80.29;100087.22;5038368;28;20414;-76
2021/12/03 02:39:27;;;;;;;15.67;10.50;;;;;;;1.84;80.53;100104.88;5043288;28;20423;-77
2021/12/03 02:41:52;;;;;;;15.60;11.03;;;;;;;1.73;81.15;100101.94;5032449;28;20488;-76
2021/12/03 02:44:17;;;;;;;14.17;10.20;;;;;;;1.63;81.39;100096.94;5040328;28;20482;-76
2021/12/03 02:46:43;;;;;;;15.80;10.10;;;;;;;1.68;81.40;100096.38;5040719;28;20391;-76
2021/12/03 02:49:13;;;;;;;16.17;9.97;;;;;;;1.61;81.74;100101.66;5031413;28;20399;-77
2021/12/03 02:51:39;;;;;;;13.65;9.88;;;;;;;1.50;81.60;100104.88;5048895;28;20505;-77
2021/12/03 02:54:04;;;;;;;15.60;10.40;;;;;;;1.33;82.79;100119.50;5036025;28;20470;-76
2021/12/03 02:56:29;;;;;;;14.50;10.88;;;;;;;1.32;82.82;100124.03;5042499;28;20395;-76
2021/12/03 02:58:55;;;;;;;12.77;10.33;;;;;;;1.27;83.16;100128.31;5036924;28;20766;-76
2021/12/03 03:01:20;;;;;;;15.23;10.37;;;;;;;1.30;82.61;100127.91;5034381;28;20426;-76
2021/12/03 03:03:45;;;;;;;12.63;10.63;;;;;;;1.25;82.79;100133.03;5040243;28;20411;-77
2021/12/03 03:06:11;;;;;;;14.57;10.57;;;;;;;1.35;82.27;100128.19;5050417;28;20401;-76
2021/12/03 03:08:40;;;;;;;13.55;10.15;;;;;;;1.29;82.42;100134.25;5040090;28;20448;-76
2021/12/03 03:11:07;;;;;;;13.55;10.95;;;;;;;1.38;82.13;100133.94;5048434;28;20480;-77
2021/12/03 03:13:32;;;;;;;15.18;10.43;;;;;;;1.40;82.17;100137.25;5037331;28;20943;-77
2021/12/03 03:15:58;;;;;;;14.20;10.40;;;;;;;1.37;81.89;100142.16;5045715;28;20551;-76
2021/12/03 03:18:25;;;;;;;15.93;11.07;;;;;;;1.31;82.39;100141.09;5033512;28;20454;-76
2021/12/03 03:20:53;;;;;;;17.98;11.73;;;;;;;1.30;82.29;100136.75;5030850;28;20403;-76
2021/12/03 03:23:19;;;;;;;18.40;12.07;;;;;;;1.42;82.05;100139.72;5036595;28;20472;-76
2021/12/03 03:25:46;;;;;;;17.80;11.70;;;;;;;1.49;81.50;100148.59;5041889;28;20456;-77
2021/12/03 03:28:13;;;;;;;19.08;12.65;;;;;;;1.37;81.73;100150.97;5031602;28;20422;-77
2021/12/03 03:30:41;;;;;;;19.48;11.75;;;;;;;1.32;82.20;100153.38;5046424;28;20861;-77
2021/12/03 03:33:07;;;;;;;17.30;12.45;;;;;;;1.29;82.51;100158.28;5031134;28;20762;-76
2021/12/03 03:35:33;;;;;;;16.85;12.38;;;;;;;1.36;81.97;100152.00;5031550;28;20502;-76
2021/12/03 03:37:59;;;;;;;17.60;12.52;;;;;;;1.42;81.68;100158.41;5044002;28;20399;-76
2021/12/03 03:40:25;;;;;;;17.23;11.88;;;;;;;1.33;82.20;100152.38;5035283;28;20419;-76
2021/12/03 03:42:51;;;;;;;22.73;14.95;;;;;;;1.32;82.08;100161.41;5030728;28;20411;-76
2021/12/03 03:45:22;;;;;;;19.15;14.25;;;;;;;1.32;82.25;100157.91;5046111;28;20420;-77
2021/12/03 03:47:48;;;;;;;19.27;13.65;;;;;;;1.26;82.29;100172.84;5038831;28;20431;-76
2021/12/03 03:50:15;;;;;;;18.67;13.20;;;;;;;1.28;82.16;100170.84;5031452;28;20419;-76
2021/12/03 03:52:41;;;;;;;21.20;13.17;;;;;;;1.33;81.91;100175.56;5040895;28;21121;-76
2021/12/03 03:55:09;;;;;;;17.67;13.02;;;;;;;1.34;81.74;100175.41;5031410;28;20406;-77
2021/12/03 03:57:35;;;;;;;21.63;13.63;;;;;;;1.29;82.11;100176.97;5041701;28;20403;-76
2021/12/03 04:00:02;;;;;;;19.67;13.47;;;;;;;1.23;81.81;100177.75;5046423;28;20746;-76
2021/12/03 04:02:28;;;;;;;23.10;13.88;;;;;;;1.23;82.12;100180.41;5029511;28;20805;-76
2021/12/03 04:04:53;;;;;;;21.27;13.53;;;;;;;1.20;82.14;100180.78;5038460;28;20417;-76
2021/12/03 04:07:18;;;;;;;20.80;13.20;;;;;;;1.17;82.44;100182.00;5034771;28;20410;-76
2021/12/03 04:09:44;;;;;;;20.37;13.47;;;;;;;1.17;82.08;100175.84;5034653;28;20822;-76
2021/12/03 04:12:09;;;;;;;19.57;13.73;;;;;;;1.16;82.21;100179.53;5049621;28;20393;-77
2021/12/03 04:14:34;;;;;;;19.17;13.50;;;;;;;1.24;81.96;100180.22;5038793;28;20514;-76
2021/12/03 04:17:00;;;;;;;19.05;14.02;;;;;;;1.24;81.93;100185.56;5045437;28;20418;-76
2021/12/03 04:19:25;;;;;;;20.60;14.23;;;;;;;1.26;81.87;100185.38;5033944;28;20391;-76
2021/12/03 04:21:50;;;;;;;18.67;13.53;;;;;;;1.28;81.64;100194.03;5050611;28;20394;-76
2021/12/03 04:24:16;;;;;;;20.97;14.30;;;;;;;1.25;82.10;100189.88;5039435;28;20509;-76
2021/12/03 04:26:41;;;;;;;23.05;13.88;;;;;;;1.27;81.88;100193.19;5038230;28;20402;-77
2021/12/03 04:29:07;;;;;;;20.05;14.07;;;;;;;1.27;81.48;100189.69;5034982;28;20398;-76
2021/12/03 04:31:32;;;;;;;20.27;13.47;;;;;;;1.25;81.82;100195.22;5050190;28;20442;-77
2021/12/03 04:33:57;;;;;;;19.50;13.00;;;;;;;1.25;81.30;100186.41;5037920;28;20408;-77
2021/12/03 04:36:23;;;;;;;26.30;14.27;;;;;;;1.25;81.66;100186.41;5054575;28;20404;-76
2021/12/03 04:38:48;;;;;;;18.80;13.53;;;;;;;1.25;81.31;100189.88;5042070;28;20494;-76
2021/12/03 04:41:14;;;;;;;20.40;14.13;;;;;;;1.17;82.11;100199.88;5034663;28;20414;-76
2021/12/03 04:43:40;;;;;;;20.20;13.73;;;;;;;1.18;81.55;100193.53;5050767;28;20875;-76
2021/12/03 04:46:06;;;;;;;19.20;13.55;;;;;;;1.14;81.98;100197.56;5041390;28;20397;-76
2021/12/03 04:48:31;;;;;;;21.58;15.07;;;;;;;1.15;81.55;100202.75;5043907;28;20907;-76
2021/12/03 04:50:56;;;;;;;20.50;13.57;;;;;;;1.12;81.65;100200.44;5033839;28;20525;-76
2021/12/03 04:53:22;;;;;;;19.33;14.43;;;;;;;1.06;81.75;100206.53;5043841;28;20394;-76
2021/12/03 04:55:49;;;;;;;20.40;14.07;;;;;;;0.79;83.20;100216.06;5048250;28;20415;-76
2021/12/03 04:58:15;;;;;;;19.60;13.43;;;;;;;0.89;83.04;100218.47;5034451;28;20482;-76
2021/12/03 05:00:46;;;;;;;18.83;13.73;;;;;;;0.95;83.09;100221.22;5033412;28;20399;-76
2021/12/03 05:03:11;;;;;;;21.35;14.60;;;;;;;0.96;82.64;100225.50;5052096;28;20400;-76
2021/12/03 05:05:42;;;;;;;25.58;17.70;;;;;;;0.94;82.45;100229.38;5048068;28;20415;-76
2021/12/03 05:08:07;;;;;;;21.52;14.73;;;;;;;0.96;82.46;100224.69;5054573;28;20414;-76
2021/12/03 05:10:36;;;;;;;21.93;14.57;;;;;;;0.99;81.90;100225.13;5033978;28;20829;-76
2021/12/03 05:13:13;;;;;;;21.20;14.93;;;;;;;0.99;82.39;100226.97;5050396;28;20447;-76
2021/12/03 05:15:39;;;;;;;25.23;16.13;;;;;;;0.97;82.57;100232.50;5033796;28;20779;-76
2021/12/03 05:18:06;;;;;;;21.25;14.55;;;;;;;0.94;82.51;100229.38;5044286;28;20401;-76
2021/12/03 05:20:32;;;;;;;19.77;14.85;;;;;;;0.95;82.60;100229.22;5038171;28;20411;-76
2021/12/03 05:22:57;;;;;;;20.38;14.88;;;;;;;1.00;82.11;100240.13;5042025;28;20904;-76
2021/12/03 05:25:23;;;;;;;22.83;14.95;;;;;;;0.99;82.14;100235.81;5039984;28;20439;-76
2021/12/03 05:27:50;;;;;;;20.75;14.40;;;;;;;1.02;81.99;100240.75;5043769;28;20430;-76
2021/12/03 05:30:16;;;;;;;27.25;15.80;;;;;;;1.00;81.70;100253.47;5046572;28;20407;-76
2021/12/03 05:32:41;;;;;;;21.58;14.80;;;;;;;0.97;81.95;100258.34;5047429;28;20748;-76
2021/12/03 05:35:08;;;;;;;22.07;14.97;;;;;;;0.96;82.17;100248.69;5034233;28;20814;-76
2021/12/03 05:37:34;;;;;;;24.02;14.73;;;;;;;0.98;82.65;100257.34;5046250;28;20485;-76
2021/12/03 05:39:59;;;;;;;21.63;15.45;;;;;;;0.94;82.12;100256.91;5038667;28;20508;-76
2021/12/03 05:42:25;;;;;;;25.48;17.60;;;;;;;0.90;82.20;100257.44;5045469;28;20414;-76
2021/12/03 05:44:50;;;;;;;23.07;15.83;;;;;;;0.88;82.54;100255.00;5039312;28;20423;-76
2021/12/03 05:47:15;;;;;;;28.83;16.60;;;;;;;0.78;82.96;100257.13;5044880;28;20531;-76
2021/12/03 05:49:41;;;;;;;23.87;15.23;;;;;;;0.85;82.55;100257.19;5039513;28;20422;-76
2021/12/03 05:52:06;;;;;;;26.70;16.45;;;;;;;0.80;82.54;100263.09;5038819;28;20472;-76
2021/12/03 05:54:32;;;;;;;21.05;15.48;;;;;;;0.80;82.72;100257.75;5038117;28;20461;-76
2021/12/03 05:56:57;;;;;;;19.73;15.13;;;;;;;0.81;82.77;100264.75;5044638;28;20447;-76
2021/12/03 05:59:22;;;;;;;27.57;16.03;;;;;;;0.73;82.92;100267.50;5050902;28;20815;-77
2021/12/03 06:01:48;;;;;;;21.47;14.80;;;;;;;0.74;83.39;100258.50;5045051;28;20403;-75
2021/12/03 06:04:13;;;;;;;21.17;14.68;;;;;;;0.82;82.75;100262.91;5044819;28;20416;-76
2021/12/03 06:06:38;;;;;;;22.57;13.93;;;;;;;0.85;82.45;100270.53;5049559;28;20980;-75
2021/12/03 06:09:04;;;;;;;17.80;13.97;;;;;;;0.79;82.47;100265.97;5044299;28;20407;-76
2021/12/03 06:11:30;;;;;;;18.33;13.77;;;;;;;0.84;82.88;100264.38;5037277;28;20877;-76
2021/12/03 06:13:55;;;;;;;19.67;12.73;;;;;;;0.82;82.54;100278.91;5036845;28;20414;-75
2021/12/03 06:16:21;;;;;;;17.57;13.10;;;;;;;0.72;82.16;100271.22;5041233;28;20407;-76
2021/12/03 06:18:46;;;;;;;16.40;12.40;;;;;;;0.66;82.91;100271.91;5041063;28;20448;-75
2021/12/03 06:21:12;;;;;;;17.97;12.67;;;;;;;0.74;83.20;100273.66;5034596;28;20827;-77
2021/12/03 06:23:38;;;;;;;16.73;12.17;;;;;;;0.69;82.71;100268.88;5041309;28;20939;-76
2021/12/03 06:26:05;;;;;;;23.17;13.32;;;;;;;0.63;83.22;100266.13;5034876;28;20408;-76
2021/12/03 06:28:32;;;;;;;19.40;13.63;;;;;;;0.48;83.60;100271.50;5032625;28;20391;-75
2021/12/03 06:30:57;;;;;;;19.67;13.02;;;;;;;0.60;83.50;100266.50;5043589;28;20385;-76
2021/12/03 06:33:23;;;;;;;19.13;12.17;;;;;;;0.54;82.92;100273.41;5037069;28;20775;-76
2021/12/03 06:35:49;;;;;;;17.40;11.90;;;;;;;0.64;83.15;100276.63;5048819;28;20482;-76
2021/12/03 06:38:15;;;;;;;18.13;11.27;;;;;;;0.61;83.41;100277.00;5039650;28;20405;-77
2021/12/03 06:40:42;;;;;;;23.05;12.80;;;;;;;0.56;83.17;100282.03;5044847;28;20413;-76
2021/12/03 06:43:07;;;;;;;16.10;11.73;;;;;;;0.58;83.74;100287.22;5037448;28;20398;-77
2021/12/03 06:45:33;;;;;;;15.73;11.37;;;;;;;0.64;83.25;100294.47;5044839;28;20512;-77
2021/12/03 06:47:58;;;;;;;17.47;10.23;;;;;;;0.72;83.15;100302.38;5047140;28;20876;-77
2021/12/03 06:50:24;;;;;;;16.87;10.60;;;;;;;0.86;83.09;100306.84;5037655;28;20993;-77
2021/12/03 06:53:03;;;;;;;15.95;9.75;;;;;;;0.97;82.28;100315.22;5050720;28;20385;-77
2021/12/03 06:55:29;;;;;;;14.63;10.05;;;;;;;1.17;81.73;100311.97;5039717;28;20807;-76
2021/12/03 06:57:55;;;;;;;13.85;9.35;;;;;;;1.29;81.41;100319.28;5042364;28;20410;-76
2021/12/03 07:00:22;;;;;;;11.20;9.68;;;;;;;1.32;80.93;100324.25;5036990;28;20448;-77
2021/12/03 07:02:48;;;;;;;13.88;9.93;;;;;;;1.33;81.48;100317.91;5046355;28;20451;-77
2021/12/03 07:05:14;;;;;;;15.80;10.33;;;;;;;1.35;80.78;100321.19;5049330;28;20463;-77
2021/12/03 07:07:41;;;;;;;18.00;10.57;;;;;;;1.34;81.10;100326.75;5031318;28;20407;-77
2021/12/03 07:10:07;;;;;;;11.23;9.38;;;;;;;1.11;81.81;100329.56;5042064;28;20410;-76
2021/12/03 07:12:32;;;;;;;16.77;10.68;;;;;;;1.18;82.31;100337.66;5047403;28;20405;-77
2021/12/03 07:14:58;;;;;;;15.80;9.30;;;;;;;1.29;81.41;100339.81;5050396;28;20396;-77
2021/12/03 07:17:26;;;;;;;13.82;8.75;;;;;;;1.43;80.21;100342.47;5046098;28;20407;-76
2021/12/03 07:19:55;;;;;;;13.17;8.73;;;;;;;1.52;79.83;100343.16;5031736;28;20403;-76
2021/12/03 07:22:20;;;;;;;10.47;8.30;;;;;;;1.41;80.81;100343.66;5045038;28;20737;-76
2021/12/03 07:24:46;;;;;;;8.90;7.77;;;;;;;1.39;81.32;100343.84;5033893;28;20472;-77
2021/12/03 07:27:11;;;;;;;7.70;6.90;;;;;;;1.39;81.35;100333.16;5039613;28;20778;-77
2021/12/03 07:29:36;;;;;;;10.67;6.43;;;;;;;1.34;81.32;100340.94;5049200;28;20923;-77
2021/12/03 07:32:02;;;;;;;13.07;7.57;;;;;;;1.30;81.15;100333.47;5037587;28;20399;-77
2021/12/03 07:34:27;;;;;;;7.50;6.07;;;;;;;1.25;81.64;100347.38;5047189;28;20413;-77
2021/12/03 07:36:53;;;;;;;9.77;6.27;;;;;;;1.27;80.97;100336.50;5040021;28;20439;-77
2021/12/03 07:39:18;;;;;;;10.20;6.27;;;;;;;1.38;80.74;100334.16;5042460;28;20930;-77
2021/12/03 07:41:43;;;;;;;7.93;6.13;;;;;;;1.43;80.66;100336.28;5034150;28;20412;-78
2021/12/03 07:44:09;;;;;;;7.83;5.70;;;;;;;1.43;80.50;100341.63;5042018;28;20413;-77
2021/12/03 07:46:35;;;;;;;10.33;6.10;;;;;;;1.52;79.70;100335.97;5033991;28;20405;-77
2021/12/03 07:49:00;;;;;;;8.97;5.90;;;;;;;1.58;80.21;100330.91;5031221;28;20437;-77
2021/12/03 07:51:26;;;;;;;10.57;5.67;;;;;;;1.66;79.83;100336.94;5035043;28;20876;-78
2021/12/03 07:53:52;;;;;;;8.10;5.65;;;;;;;1.68;79.26;100331.44;5036988;28;20395;-77
2021/12/03 07:56:17;;;;;;;7.63;5.50;;;;;;;1.77;78.80;100327.59;5035369;28;20482;-77
2021/12/03 07:58:42;;;;;;;7.30;5.23;;;;;;;1.79;78.61;100333.56;5042978;28;20419;-77
2021/12/03 08:01:07;;;;;;;7.57;4.90;;;;;;;1.80;78.77;100333.38;5029856;28;20478;-77
2021/12/03 08:03:33;;;;;;;9.10;5.28;;;;;;;1.83;78.82;100337.53;5032170;28;20468;-77
2021/12/03 08:06:04;;;;;;;8.47;5.07;;;;;;;2.00;78.17;100349.59;5031209;28;20738;-77
2021/12/03 08:08:31;;;;;;;7.47;5.13;;;;;;;1.96;78.47;100353.69;5045556;28;20407;-77
2021/12/03 08:10:56;;;;;;;9.10;5.47;;;;;;;2.04;78.20;100353.56;5035451;28;20405;-77
2021/12/03 08:13:21;;;;;;;7.30;5.65;;;;;;;2.08;78.09;100358.31;5044757;28;20827;-77
2021/12/03 08:15:47;;;;;;;7.10;5.70;;;;;;;2.10;77.81;100352.78;5050391;28;20412;-77
2021/12/03 08:18:12;;;;;;;10.73;5.37;;;;;;;2.21;76.92;100349.56;5036630;28;20434;-77
2021/12/03 08:20:37;;;;;;;12.57;6.10;;;;;;;2.14;76.85;100348.69;5058442;28;20387;-77
2021/12/03 08:23:03;;;;;;;9.80;5.90;;;;;;;2.15;77.32;100341.50;5042486;28;20389;-77
2021/12/03 08:25:29;;;;;;;10.13;5.87;;;;;;;2.18;77.76;100351.78;5034882;28;20886;-77
2021/12/03 08:27:55;;;;;;;8.88;6.00;;;;;;;2.20;78.10;100355.13;5048447;28;20406;-77
2021/12/03 08:30:20;;;;;;;8.93;5.77;;;;;;;2.53;76.91;100348.19;5034030;28;20830;-77
2021/12/03 08:32:46;;;;;;;7.90;6.57;;;;;;;2.53;76.55;100345.50;5030787;28;20406;-77
2021/12/03 08:35:11;;;;;;;11.77;6.32;;;;;;;2.66;76.62;100350.94;5035574;28;20424;-77
2021/12/03 08:37:43;;;;;;;9.07;5.53;;;;;;;2.57;76.72;100350.25;5031995;28;20909;-77
2021/12/03 08:40:09;;;;;;;7.90;5.88;;;;;;;2.25;77.58;100353.50;5037480;28;20504;-77
2021/12/03 08:42:35;;;;;;;8.40;6.37;;;;;;;2.32;78.07;100351.72;5038823;28;20979;-77
2021/12/03 08:45:00;;;;;;;9.77;6.38;;;;;;;2.52;77.33;100349.19;5044638;28;20507;-77
2021/12/03 08:47:26;;;;;;;9.23;6.83;;;;;;;2.65;77.12;100357.31;5032592;28;20964;-77
2021/12/03 08:49:54;;;;;;;11.30;7.50;;;;;;;2.80;76.50;100358.00;5030673;28;20383;-77
2021/12/03 08:54:54;;;;;;;11.90;6.88;;;;;;;3.07;76.07;100362.47;5033009;28;20494;-77
2021/12/03 08:57:23;;;;;;;9.02;6.80;;;;;;;3.29;75.77;100368.56;5033965;28;20406;-77
2021/12/03 08:59:55;;;;;;;11.35;6.65;;;;;;;4.11;73.39;100358.47;5034661;28;20797;-77
2021/12/03 09:02:21;;;;;;;11.00;6.15;;;;;;;4.25;72.04;100355.78;5045374;28;20426;-77
2021/12/03 09:04:47;;;;;;;9.82;5.50;;;;;;;4.08;72.40;100358.84;5064473;28;20453;-77
2021/12/03 09:07:13;;;;;;;7.93;5.88;;;;;;;4.07;72.81;100359.06;5049285;28;20743;-77
2021/12/03 09:09:38;;;;;;;7.67;5.83;;;;;;;4.47;71.19;100352.69;5040547;28;20389;-77
2021/12/03 09:12:04;;;;;;;8.33;6.10;;;;;;;4.33;71.64;100351.03;5043225;28;20399;-77
2021/12/03 09:15:13;;;;;;;6.83;5.40;;;;;;;4.09;71.32;100348.94;5033940;28;20403;-77
2021/12/03 09:20:07;;;;;;;9.23;7.10;;;;;;;3.76;72.07;100365.00;5042780;28;20865;-77
2021/12/03 09:22:39;;;;;;;9.95;6.10;;;;;;;3.61;73.27;100361.66;5037485;28;20391;-77
2021/12/03 09:25:07;;;;;;;8.60;5.40;;;;;;;3.42;73.55;100360.59;5052316;28;20414;-77
2021/12/03 09:27:32;;;;;;;10.07;5.88;;;;;;;3.34;73.78;100366.09;5044782;28;20463;-77
2021/12/03 09:29:58;;;;;;;8.10;6.10;;;;;;;3.26;74.75;100363.59;5044600;28;20401;-77
2021/12/03 09:32:30;;;;;;;8.45;5.93;;;;;;;3.23;74.33;100352.47;5037782;28;20391;-77
2021/12/03 09:34:56;;;;;;;8.23;6.32;;;;;;;3.30;74.15;100356.81;5033493;28;20406;-77
2021/12/03 09:37:22;;;;;;;9.77;6.57;;;;;;;3.34;75.12;100347.34;5033592;28;20478;-77
2021/12/03 09:39:48;;;;;;;10.98;7.32;;;;;;;3.46;75.33;100344.91;5060853;28;20421;-77
2021/12/03 09:42:18;;;;;;;9.53;6.63;;;;;;;3.37;75.25;100346.94;5042423;28;20405;-77
2021/12/03 09:44:46;;;;;;;11.40;8.02;;;;;;;3.40;75.67;100346.56;5033888;28;20441;-77
2021/12/03 09:47:15;;;;;;;9.65;7.30;;;;;;;3.35;76.05;100349.03;5032982;28;20399;-77
2021/12/03 09:49:42;;;;;;;11.23;7.20;;;;;;;3.32;76.25;100348.59;5045310;28;20476;-77
2021/12/03 09:52:28;;;;;;;9.80;7.43;;;;;;;3.46;75.85;100347.59;5049564;28;20401;-78
2021/12/03 09:55:15;;;;;;;9.35;7.20;;;;;;;3.39;76.33;100352.13;5039934;28;20389;-78
2021/12/03 09:58:06;;;;;;;9.77;6.90;;;;;;;3.50;76.40;100349.69;5039152;28;20391;-76
2021/12/03 10:00:36;;;;;;;11.40;7.28;;;;;;;3.88;75.19;100336.56;5035895;28;20897;-77
2021/12/03 10:13:41;;;;;;;7.93;6.70;;;;;;;4.15;73.79;100324.81;5040131;28;20471;-76
2021/12/03 10:30:22;;;;;;;8.18;5.03;;;;;;;3.90;71.28;100307.69;5037507;28;20392;-76
2021/12/03 10:38:15;;;;;;;8.98;5.15;;;;;;;4.93;69.71;100292.69;5052528;28;20434;-76
2021/12/03 10:46:27;;;;;;;5.43;4.20;;;;;;;4.30;68.43;100283.56;5032832;28;20450;-76
2021/12/03 10:48:56;;;;;;;6.43;3.73;;;;;;;4.34;68.32;100276.75;5031479;28;20395;-76
2021/12/03 10:56:55;;;;;;;7.13;4.72;;;;;;;4.42;69.11;100279.19;5033253;28;20395;-76
2021/12/03 11:33:37;;;;;;;5.63;3.70;;;;;;;4.62;66.60;100237.84;5036053;28;21093;-78
2021/12/03 12:14:17;;;;;;;7.88;4.38;;;;;;;4.46;66.39;100191.88;5038859;28;20399;-78
2021/12/03 12:16:13;;;;;;;10.53;6.07;;;;;;;4.39;66.31;100174.97;5043324;28;20491;-78
2021/12/03 13:00:52;;;;;;;5.60;4.22;;;;;;;4.28;68.11;100164.91;5039995;28;20442;-77
2021/12/03 13:31:27;;;;;;;7.78;4.82;;;;;;;4.39;67.97;100121.31;5033320;28;20407;-77
2021/12/03 13:45:47;;;;;;;14.23;7.88;;;;;;;4.42;67.14;100108.31;5013102;28;20469;-77
2021/12/03 14:27:25;;;;;;;5.07;4.40;;;;;;;4.37;66.43;100080.47;5036788;28;20430;-77
2021/12/03 14:36:52;;;;;;;8.50;4.82;;;;;;;4.26;66.42;100047.09;5043392;28;20440;-77
2021/12/03 14:39:42;;;;;;;4.63;3.53;;;;;;;4.32;64.45;100051.59;5036310;28;20396;-78
2021/12/03 14:42:26;;;;;;;8.70;4.72;;;;;;;4.15;66.05;100045.91;5039569;28;20411;-77
2021/12/03 14:44:56;;;;;;;7.50;5.20;;;;;;;4.10;66.71;100048.41;5037705;28;20489;-77
2021/12/03 14:55:31;;;;;;;6.85;4.95;;;;;;;3.90;67.14;100039.63;5036274;28;20407;-77
2021/12/03 14:58:01;;;;;;;5.27;4.10;;;;;;;3.91;67.78;100041.28;5049130;28;21033;-77
2021/12/03 15:08:29;;;;;;;6.00;4.30;;;;;;;3.62;68.49;100041.78;5032699;28;20406;-76
2021/12/03 15:21:36;;;;;;;5.13;4.25;;;;;;;3.60;68.20;100044.66;5037705;28;20401;-77
2021/12/03 15:24:35;;;;;;;7.70;4.53;;;;;;;3.67;68.19;100045.47;5041113;28;20406;-77
2021/12/03 15:29:51;;;;;;;4.70;4.13;;;;;;;3.68;68.25;100024.88;5041389;28;20749;-77
2021/12/03 15:32:51;;;;;;;12.25;11.05;;;;;;;3.66;67.82;100030.41;5046297;28;20793;-77
2021/12/03 15:35:23;;;;;;;8.98;6.00;;;;;;;3.71;68.69;100015.56;5033984;28;20407;-78
2021/12/03 16:04:44;;;;;;;7.00;4.63;;;;;;;3.59;68.02;99997.44;5045447;28;20500;-77
2021/12/03 16:15:00;;;;;;;5.93;4.60;;;;;;;3.55;68.58;99990.91;5038270;28;20411;-78
2021/12/03 16:23:15;;;;;;;7.15;4.95;;;;;;;3.65;68.54;99985.88;5045312;28;20799;-78
2021/12/03 16:52:55;;;;;;;5.53;4.10;;;;;;;3.42;68.44;99945.41;5053295;28;20901;-78
2021/12/03 16:55:20;;;;;;;6.97;3.50;;;;;;;3.47;68.38;99947.44;5044102;28;20403;-77
2021/12/03 16:57:50;;;;;;;5.70;4.13;;;;;;;3.49;68.37;99940.03;5036115;28;20904;-77
2021/12/03 17:00:40;;;;;;;6.55;4.60;;;;;;;3.46;68.25;99935.88;5046508;28;20397;-77
2021/12/03 17:03:21;;;;;;;12.40;7.03;;;;;;;3.39;68.37;99923.56;5039123;28;20398;-78
2021/12/03 17:06:44;;;;;;;7.53;5.63;;;;;;;3.37;68.69;99931.78;5048287;28;20419;-78
2021/12/03 17:08:51;;;;;;;7.60;5.10;;;;;;;3.43;67.82;99922.09;5033554;28;20442;-78
2021/12/03 17:19:45;;;;;;;9.77;4.80;;;;;;;3.44;68.60;99895.09;5043439;28;20405;-77